< < Back
Terminal Aerodrome Forecast


Current Version              Previous Versions:   1  2  3  4  5  6  7  8  9  

Terminal Aerodrome Forecast

919
FTUS42 KTAE 031700 CCA
TAFVLD
TAF COR
KVLD 031757Z 0318/0418 15006KT P6SM SCT035 BKN045
     FM032100 16007KT P6SM BKN050
     FM040700 18003KT 4SM BR BKN008
     FM040900 19003KT 1/4SM FG OVC001
     FM041400 19004KT 3SM BR SCT003 BKN012
     FM041600 20008KT P6SM BKN025=



Latest METAR

525
SAUS70 KWBC 041100 RRC
MTRVLD
METAR KVLD 041053Z AUTO 00000KT 5SM BR BKN038 16/16 A3011 RMK AO2 SLP201
T01610156 TSNO


USA.gov is the U.S. government's official web portal to all federal, state and local government web resources and services.